Weather History for CYBW - April, 2014

Change the Weather History Date:

Tuesday, April 15, 2014

  Actual Average Record
Temperature  
Mean Temperature 39 °F -  
Max Temperature 46 °F 51 °F 55 °F (1997)
Min Temperature 30 °F 28 °F 13 °F (2013)
Degree Days  
Heating Degree Days 26    
Moisture  
Dew Point 29 °F    
Average Humidity 83    
Maximum Humidity 100    
Minimum Humidity 29    
Precipitation  
Precipitation 0.00 in - - ()
Sea Level Pressure  
Sea Level Pressure 29.91 in    
Wind  
Wind Speed 10 mph ()    
Max Wind Speed 23 mph    
Max Gust Speed 32 mph    
Visibility 6.0 miles    
Events Rain , Snow    
Averages and records for this station are not official NWS values.
T = Trace of Precipitation, MM = Missing Value Source: Averaged Metar Reports

Daily Weather History Graph

Daily Weather History Graph

Search for Another Location

Airport or City:

Trip Planner

Search our weather history database for the weather conditions in past years. The results will help you decide how hot, cold, wet, or windy it might be!

Date:

Astronomy

Apr. 15, 2014 Rise Set
Actual Time 6:42 AM MDT 8:33 PM MDT
Civil Twilight 6:07 AM MDT 9:08 PM MDT
Nautical Twilight 5:23 AM MDT 9:52 PM MDT
Astronomical Twilight 4:35 AM MDT 10:41 PM MDT
Moon 9:24 PM MDT (4/15) 6:51 AM MDT (4/15)
Length of Visible Light 15h 01m
Length of Day
13h 51m
Full, 100% of the Moon is Illuminated
Apr 15
Full
Apr 22
Last Quarter
Apr 29
New
May 6
First Quarter
May 14
Full

Hourly Weather History & Observations

Time (MDT) Temp. Windchill Dew Point Humidity Pressure Visibility Wind Dir Wind Speed Gust Speed Precip Events Conditions
12:00 AM 44.6 °F 37.8 °F 14.0 °F 29% 29.75 in 9.0 mi West 15.0 mph 20.7 mph N/A   Mostly Cloudy
1:00 AM 42.8 °F 36.2 °F 14.0 °F 31% 29.75 in 9.0 mi WNW 12.7 mph - N/A   Overcast
2:00 AM 37.4 °F 29.8 °F 17.6 °F 45% 29.74 in 9.0 mi West 11.5 mph - N/A   Mostly Cloudy
3:00 AM 37.4 °F 30.8 °F 19.4 °F 48% 29.72 in 9.0 mi NW 9.2 mph - N/A   Overcast
4:00 AM 35.6 °F 29.9 °F 19.4 °F 52% 29.71 in 9.0 mi NNW 6.9 mph - N/A   Overcast
5:00 AM 35.6 °F 29.2 °F 23.0 °F 60% 29.70 in 9.0 mi NNW 8.1 mph - N/A   Overcast
6:00 AM 33.8 °F 27.7 °F 19.4 °F 56% 29.70 in 9.0 mi WNW 6.9 mph - N/A   Mostly Cloudy
7:00 AM 35.6 °F 28.6 °F 21.2 °F 56% 29.70 in 9.0 mi WNW 9.2 mph - N/A   Overcast
8:00 AM 37.4 °F 30.8 °F 21.2 °F 52% 29.71 in 9.0 mi NNE 9.2 mph - N/A   Mostly Cloudy
9:00 AM 44.6 °F 38.1 °F 17.6 °F 34% 29.73 in 9.0 mi North 13.8 mph - N/A   Overcast
10:00 AM 46.4 °F 39.8 °F 17.6 °F 32% 29.74 in 9.0 mi NNW 16.1 mph 24.2 mph N/A   Overcast
11:00 AM 44.6 °F 37.4 °F 17.6 °F 34% 29.77 in 9.0 mi NNW 16.1 mph 24.2 mph N/A   Overcast
11:16 AM 42.8 °F 35.4 °F 21.2 °F 42% 29.78 in 9.0 mi NNE 15.0 mph 32.2 mph N/A Rain Light Rain
11:28 AM 42.8 °F 36.6 °F 21.2 °F 42% 29.79 in 9.0 mi NW 11.5 mph 27.6 mph N/A   Overcast
11:35 AM 44.6 °F 35.9 °F 17.6 °F 34% 29.78 in 9.0 mi NNW 23.0 mph - N/A   Overcast
12:00 PM 46.4 °F 39.0 °F 19.4 °F 34% 29.78 in 9.0 mi NNW 19.6 mph 27.6 mph N/A   Overcast
1:00 PM 41.0 °F 33.9 °F 21.2 °F 45% 29.82 in 9.0 mi NNW 12.7 mph 24.2 mph N/A   Overcast
1:18 PM 41.0 °F 34.3 °F 26.6 °F 57% 29.83 in 8.0 mi WNW 11.5 mph 18.4 mph N/A Rain Light Rain
1:24 PM 39.2 °F 31.2 °F 26.6 °F 61% 29.83 in 4.0 mi North 13.8 mph 28.8 mph N/A Rain Light Rain
1:25 PM 39.2 °F 33.6 °F 26.6 °F 61% 29.83 in 4.0 mi North 8.1 mph 28.8 mph N/A Rain Light Rain
1:30 PM 39.2 °F 35.9 °F 26.6 °F 61% 29.83 in 4.0 mi NE 4.6 mph 28.8 mph N/A   Overcast
1:33 PM 39.2 °F 37.0 °F 26.6 °F 61% 29.83 in 6.0 mi Variable 3.5 mph 18.4 mph N/A   Overcast
1:39 PM 41.0 °F 39.0 °F 24.8 °F 53% 29.82 in 9.0 mi Variable 3.5 mph - N/A   Overcast
1:47 PM 42.8 °F 35.4 °F 23.0 °F 46% 29.82 in 9.0 mi NNE 15.0 mph - N/A   Overcast
2:00 PM 42.8 °F 34.8 °F 24.8 °F 49% 29.84 in 9.0 mi North 17.3 mph - N/A   Overcast
2:21 PM 41.0 °F 37.1 °F 24.8 °F 53% 29.85 in 9.0 mi NNE 5.8 mph - N/A Rain Light Rain
2:33 PM 41.0 °F - 24.8 °F 53% 29.85 in 9.0 mi Variable 2.3 mph - N/A   Overcast
3:00 PM 41.0 °F 36.4 °F 26.6 °F 57% 29.87 in 9.0 mi WNW 6.9 mph - N/A   Overcast
3:04 PM 41.0 °F 32.2 °F 28.4 °F 61% 29.86 in 9.0 mi NW 18.4 mph 25.3 mph N/A   Overcast
3:10 PM 39.2 °F 30.8 °F 30.2 °F 70% 29.87 in 9.0 mi WNW 15.0 mph 27.6 mph N/A   Overcast
3:13 PM 39.2 °F 29.6 °F 30.2 °F 70% 29.87 in 9.0 mi WNW 19.6 mph 27.6 mph N/A Rain Light Rain
3:20 PM 37.4 °F 28.2 °F 32.0 °F 81% 29.88 in 9.0 mi WNW 16.1 mph 24.2 mph N/A Rain Light Rain
3:24 PM 37.4 °F 28.2 °F 33.8 °F 87% 29.88 in 9.0 mi NW 16.1 mph 24.2 mph N/A Rain Light Rain
3:39 PM 37.4 °F 27.8 °F 32.0 °F 81% 29.88 in 9.0 mi NW 17.3 mph - N/A Rain Light Rain
4:00 PM 37.4 °F 28.2 °F 32.0 °F 81% 29.90 in 9.0 mi NW 16.1 mph - N/A Rain Light Rain
4:12 PM 37.4 °F 28.5 °F 32.0 °F 81% 29.90 in 9.0 mi WNW 15.0 mph - N/A   Overcast
4:15 PM 37.4 °F 28.9 °F 32.0 °F 81% 29.90 in 9.0 mi NW 13.8 mph - N/A Rain Light Rain
4:26 PM 37.4 °F 29.3 °F 32.0 °F 81% 29.90 in 9.0 mi WNW 12.7 mph - N/A   Overcast
4:35 PM 37.4 °F 29.8 °F 32.0 °F 81% 29.90 in 9.0 mi WNW 11.5 mph - N/A Rain Light Rain
4:45 PM 37.4 °F 30.8 °F 32.0 °F 81% 29.90 in 9.0 mi WNW 9.2 mph - N/A   Overcast
4:54 PM 37.4 °F 31.4 °F 32.0 °F 81% 29.91 in 9.0 mi WNW 8.1 mph - N/A Rain Light Rain
5:00 PM 37.4 °F 31.4 °F 32.0 °F 81% 29.91 in 9.0 mi WNW 8.1 mph - N/A Rain Light Rain
5:20 PM 37.4 °F 32.1 °F 32.0 °F 81% 29.91 in 9.0 mi West 6.9 mph - N/A   Overcast
5:40 PM 37.4 °F 30.8 °F 32.0 °F 81% 29.91 in 9.0 mi West 9.2 mph - N/A Rain Light Rain
5:52 PM 37.4 °F 30.3 °F 32.0 °F 81% 29.91 in 9.0 mi West 10.4 mph - N/A   Mostly Cloudy
6:00 PM 37.4 °F 30.3 °F 32.0 °F 81% 29.92 in 9.0 mi West 10.4 mph - N/A   Mostly Cloudy
6:20 PM 37.4 °F 30.8 °F 32.0 °F 81% 29.93 in 9.0 mi NW 9.2 mph - N/A Rain Light Rain
6:33 PM 35.6 °F 26.6 °F 32.0 °F 87% 29.94 in 5.0 mi NNW 13.8 mph - N/A Rain Rain
6:38 PM 33.8 °F 25.8 °F 32.0 °F 93% 29.95 in 2.5 mi North 10.4 mph - N/A   Overcast
6:40 PM 33.8 °F 25.3 °F 32.0 °F 93% 29.95 in 1.5 mi NNW 11.5 mph - N/A   Overcast
6:43 PM 33.8 °F 25.8 °F 32.0 °F 93% 29.95 in 1.2 mi NNW 10.4 mph - N/A Snow Light Snow
6:44 PM 32.0 °F 23.6 °F 32.0 °F 100% 29.95 in 0.8 mi NNW 10.4 mph - N/A Snow Light Snow
6:48 PM 32.0 °F 25.6 °F 32.0 °F 100% 29.95 in 0.8 mi NNW 6.9 mph - N/A Snow Light Snow
6:55 PM 32.0 °F 28.7 °F 32.0 °F 100% 29.96 in 1.0 mi NW 3.5 mph - N/A Snow Light Snow
7:00 PM 32.0 °F 27.5 °F 32.0 °F 100% 29.95 in 1.8 mi NW 4.6 mph - N/A Snow Light Snow
7:03 PM 32.0 °F 27.5 °F 32.0 °F 100% 29.95 in 3.0 mi NW 4.6 mph - N/A Snow Light Snow
7:04 PM 32.0 °F 27.5 °F 32.0 °F 100% 29.95 in 3.0 mi NW 4.6 mph - N/A Snow Light Snow
7:08 PM 32.0 °F - 32.0 °F 100% 29.95 in 7.0 mi West 2.3 mph - N/A Snow Light Snow
7:18 PM 32.0 °F 28.7 °F 32.0 °F 100% 29.96 in 6.0 mi WNW 3.5 mph - N/A Snow Light Snow
7:20 PM 32.0 °F 27.5 °F 32.0 °F 100% 29.96 in 7.0 mi WNW 4.6 mph - N/A Snow Light Snow
7:27 PM 32.0 °F 26.4 °F 32.0 °F 100% 29.96 in 9.0 mi WNW 5.8 mph - N/A   Overcast
7:31 PM 32.0 °F 26.4 °F 32.0 °F 100% 29.96 in 9.0 mi WNW 5.8 mph - N/A Rain Light Rain
7:36 PM 32.0 °F 26.4 °F 32.0 °F 100% 29.96 in 5.0 mi West 5.8 mph - N/A Rain Light Rain
7:38 PM 33.8 °F 28.6 °F 32.0 °F 93% 29.96 in 4.0 mi West 5.8 mph - N/A Rain , Snow Light Snow
7:41 PM 32.0 °F 25.6 °F 32.0 °F 100% 29.96 in 2.5 mi WNW 6.9 mph - N/A Rain , Snow Light Snow
7:43 PM 32.0 °F 25.6 °F 32.0 °F 100% 29.96 in 2.2 mi WNW 6.9 mph - N/A Snow Light Snow
7:53 PM 32.0 °F 25.6 °F 32.0 °F 100% 29.96 in 1.8 mi West 6.9 mph - N/A Snow Light Snow
7:58 PM 32.0 °F 25.6 °F 32.0 °F 100% 29.96 in 1.8 mi West 6.9 mph - N/A Snow Light Snow
8:00 PM 32.0 °F 25.6 °F 32.0 °F 100% 29.96 in 1.8 mi West 6.9 mph - N/A Snow Light Snow
8:12 PM 32.0 °F 27.5 °F 32.0 °F 100% 29.96 in 3.0 mi WNW 4.6 mph - N/A Snow Light Snow
8:16 PM 32.0 °F 26.4 °F 32.0 °F 100% 29.96 in 6.0 mi NW 5.8 mph - N/A Snow Light Snow
8:22 PM 32.0 °F 26.4 °F 32.0 °F 100% 29.96 in 9.0 mi NW 5.8 mph - N/A   Overcast
8:24 PM 32.0 °F 26.4 °F 32.0 °F 100% 29.96 in 9.0 mi NW 5.8 mph - N/A   Overcast
8:26 PM 32.0 °F 25.6 °F 32.0 °F 100% 29.96 in 9.0 mi NW 6.9 mph - N/A Rain Light Freezing Rain
8:31 PM 32.0 °F 25.6 °F 32.0 °F 100% 29.97 in 9.0 mi NNW 6.9 mph - N/A Rain Light Rain
8:33 PM 32.0 °F 26.4 °F 32.0 °F 100% 29.97 in 7.0 mi NNW 5.8 mph - N/A Rain , Snow Light Snow
8:34 PM 32.0 °F 26.4 °F 32.0 °F 100% 29.97 in 7.0 mi NNW 5.8 mph - N/A Snow Light Snow
8:36 PM 32.0 °F 26.4 °F 32.0 °F 100% 29.97 in 5.0 mi NNW 5.8 mph - N/A Snow Light Snow
8:38 PM 32.0 °F 26.4 °F 32.0 °F 100% 29.97 in 4.0 mi NNW 5.8 mph - N/A Snow Light Snow
8:40 PM 32.0 °F 27.5 °F 32.0 °F 100% 29.97 in 4.0 mi NNW 4.6 mph - N/A Snow Light Snow
8:45 PM 32.0 °F 27.5 °F 32.0 °F 100% 29.97 in 6.0 mi NNW 4.6 mph - N/A Rain , Snow Light Snow
8:47 PM 32.0 °F 27.5 °F 32.0 °F 100% 29.97 in 8.0 mi NNW 4.6 mph - N/A Rain Light Rain
8:50 PM 32.0 °F 27.5 °F 32.0 °F 100% 29.98 in 9.0 mi NNW 4.6 mph - N/A Rain Light Rain
8:54 PM 32.0 °F 25.6 °F 32.0 °F 100% 29.98 in 8.0 mi NNW 6.9 mph - N/A Rain Light Rain
8:55 PM 32.0 °F 25.6 °F 32.0 °F 100% 29.98 in 6.0 mi NNW 6.9 mph - N/A Rain Light Rain
8:56 PM 32.0 °F 24.8 °F 32.0 °F 100% 29.98 in 5.0 mi NNW 8.1 mph - N/A Rain Light Rain
8:58 PM 32.0 °F 24.2 °F 32.0 °F 100% 29.98 in 4.0 mi NNW 9.2 mph - N/A Rain , Snow Light Snow
9:00 PM 32.0 °F 24.2 °F 32.0 °F 100% 29.97 in 3.0 mi NNW 9.2 mph - N/A Rain , Snow Light Snow
9:01 PM 32.0 °F 24.2 °F 32.0 °F 100% 29.97 in 2.5 mi North 9.2 mph - N/A Rain , Snow Light Snow
9:02 PM 32.0 °F 24.2 °F 32.0 °F 100% 29.97 in 2.5 mi North 9.2 mph - N/A Rain , Snow Light Snow
9:03 PM 32.0 °F 23.6 °F 32.0 °F 100% 29.97 in 2.0 mi NNW 10.4 mph - N/A Snow Light Snow
9:09 PM 32.0 °F 23.0 °F 32.0 °F 100% 29.97 in 1.5 mi North 11.5 mph - N/A Snow Light Snow
9:13 PM 32.0 °F 24.8 °F 32.0 °F 100% 29.98 in 1.2 mi North 8.1 mph - N/A Snow Light Snow
9:14 PM 32.0 °F 24.8 °F 32.0 °F 100% 29.98 in 1.2 mi North 8.1 mph - N/A Snow Light Snow
9:17 PM 32.0 °F 24.8 °F 32.0 °F 100% 29.98 in 1.2 mi North 8.1 mph - N/A Snow Light Snow
9:42 PM 32.0 °F 22.5 °F 32.0 °F 100% 29.99 in 1.8 mi NNW 12.7 mph - N/A Snow Light Snow
9:52 PM 32.0 °F 23.6 °F 32.0 °F 100% 29.99 in 2.2 mi NNW 10.4 mph - N/A Snow Light Snow
9:54 PM 32.0 °F 23.0 °F 32.0 °F 100% 29.99 in 2.2 mi NNW 11.5 mph - N/A Snow Light Snow
10:00 PM 32.0 °F 23.6 °F 32.0 °F 100% 29.99 in 1.8 mi NNW 10.4 mph - N/A Snow Light Snow
10:04 PM 32.0 °F 23.6 °F 32.0 °F 100% 29.99 in 1.5 mi NNW 10.4 mph - N/A Snow Light Snow
10:13 PM 32.0 °F 24.8 °F 32.0 °F 100% 29.99 in 3.0 mi NNW 8.1 mph - N/A Snow Light Snow
10:18 PM 32.0 °F 24.2 °F 32.0 °F 100% 30.00 in 6.0 mi NNW 9.2 mph - N/A Snow Light Snow
10:28 PM 32.0 °F 24.8 °F 32.0 °F 100% 30.00 in 9.0 mi NNW 8.1 mph - N/A Rain , Snow Light Snow
10:31 PM 32.0 °F 24.8 °F 32.0 °F 100% 30.00 in 9.0 mi NNW 8.1 mph - N/A Rain Light Rain
11:00 PM 32.0 °F 23.0 °F 30.2 °F 93% 30.00 in 9.0 mi NNW 11.5 mph - N/A Rain Light Rain
11:08 PM 32.0 °F 23.6 °F 32.0 °F 100% 30.01 in 5.0 mi NNW 10.4 mph - N/A Rain Light Rain
11:25 PM 32.0 °F 24.8 °F 32.0 °F 100% 30.01 in 5.0 mi NNW 8.1 mph - N/A   Overcast
11:29 PM 32.0 °F 24.8 °F 32.0 °F 100% 30.01 in 3.0 mi NNW 8.1 mph - N/A Rain , Snow Light Snow
11:30 PM 32.0 °F 24.2 °F 32.0 °F 100% 30.01 in 2.5 mi NNW 9.2 mph - N/A Snow Light Snow
11:33 PM 32.0 °F 22.5 °F 32.0 °F 100% 30.01 in 1.8 mi NNW 12.7 mph - N/A Snow Light Snow
11:34 PM 32.0 °F 22.1 °F 32.0 °F 100% 30.01 in 1.5 mi NNW 13.8 mph - N/A Snow Light Snow
11:42 PM 32.0 °F 20.8 °F 30.2 °F 93% 30.02 in 1.2 mi North 17.3 mph 24.2 mph N/A Snow Light Snow
11:47 PM 30.2 °F 18.9 °F 30.2 °F 100% 30.02 in 1.5 mi North 16.1 mph 24.2 mph N/A Snow Light Snow